sensor_id;sensor_type;location;lat;lon;timestamp;P1;durP1;ratioP1;P2;durP2;ratioP2
19343;SDS011;9808;52.402;16.678;2022-08-19T18:39:45;32.35;;;25.80;;
19343;SDS011;9808;52.402;16.678;2022-08-19T18:42:30;33.50;;;24.80;;
19343;SDS011;9808;52.402;16.678;2022-08-19T18:45:16;30.00;;;24.60;;
19343;SDS011;9808;52.402;16.678;2022-08-19T18:48:01;32.83;;;23.75;;
19343;SDS011;9808;52.402;16.678;2022-08-19T18:50:53;30.55;;;23.58;;
19343;SDS011;9808;52.402;16.678;2022-08-19T18:53:21;34.60;;;23.58;;
19343;SDS011;9808;52.402;16.678;2022-08-19T18:55:48;30.90;;;22.45;;
19343;SDS011;9808;52.402;16.678;2022-08-19T18:58:20;31.30;;;23.08;;
19343;SDS011;9808;52.402;16.678;2022-08-19T19:00:51;32.35;;;22.63;;
19343;SDS011;9808;52.402;16.678;2022-08-19T19:03:22;32.13;;;22.20;;
19343;SDS011;9808;52.402;16.678;2022-08-19T19:05:50;26.13;;;21.02;;
19343;SDS011;9808;52.402;16.678;2022-08-19T19:08:18;29.55;;;21.95;;
19343;SDS011;9808;52.402;16.678;2022-08-19T19:10:45;27.60;;;21.92;;
19343;SDS011;9808;52.402;16.678;2022-08-19T19:13:16;29.83;;;21.55;;
19343;SDS011;9808;52.402;16.678;2022-08-19T19:15:42;32.15;;;22.05;;
19343;SDS011;9808;52.402;16.678;2022-08-19T19:18:09;28.63;;;22.08;;
19343;SDS011;9808;52.402;16.678;2022-08-19T19:20:41;34.80;;;24.58;;
19343;SDS011;9808;52.402;16.678;2022-08-19T19:23:08;30.33;;;25.13;;
19343;SDS011;9808;52.402;16.678;2022-08-19T19:25:36;32.47;;;23.38;;
19343;SDS011;9808;52.402;16.678;2022-08-19T19:28:19;27.65;;;21.67;;
19343;SDS011;9808;52.402;16.678;2022-08-19T19:30:54;28.35;;;21.88;;
19343;SDS011;9808;52.402;16.678;2022-08-19T19:33:26;33.20;;;21.75;;
19343;SDS011;9808;52.402;16.678;2022-08-19T19:35:53;31.33;;;22.20;;
19343;SDS011;9808;52.402;16.678;2022-08-19T19:38:19;28.38;;;21.05;;
19343;SDS011;9808;52.402;16.678;2022-08-19T19:40:46;28.30;;;21.63;;
19343;SDS011;9808;52.402;16.678;2022-08-19T19:43:13;27.58;;;21.33;;
19343;SDS011;9808;52.402;16.678;2022-08-19T19:45:44;25.85;;;21.67;;
19343;SDS011;9808;52.402;16.678;2022-08-19T19:48:12;28.63;;;22.23;;
19343;SDS011;9808;52.402;16.678;2022-08-19T19:50:42;23.33;;;20.05;;
19343;SDS011;9808;52.402;16.678;2022-08-19T19:53:10;24.98;;;21.30;;
19343;SDS011;9808;52.402;16.678;2022-08-19T19:55:38;25.63;;;21.70;;
19343;SDS011;9808;52.402;16.678;2022-08-19T19:58:06;24.73;;;20.60;;
19343;SDS011;9808;52.402;16.678;2022-08-19T20:00:33;27.33;;;21.23;;
19343;SDS011;9808;52.402;16.678;2022-08-19T20:03:00;27.35;;;21.35;;
19343;SDS011;9808;52.402;16.678;2022-08-19T20:05:27;28.83;;;22.08;;
19343;SDS011;9808;52.402;16.678;2022-08-19T20:07:54;29.60;;;22.17;;
19343;SDS011;9808;52.402;16.678;2022-08-19T20:10:40;34.03;;;21.38;;
19343;SDS011;9808;52.402;16.678;2022-08-19T20:13:08;28.83;;;21.33;;
19343;SDS011;9808;52.402;16.678;2022-08-19T20:15:36;28.13;;;21.55;;
19343;SDS011;9808;52.402;16.678;2022-08-19T20:18:08;31.00;;;23.40;;
19343;SDS011;9808;52.402;16.678;2022-08-19T20:20:37;36.08;;;23.20;;
19343;SDS011;9808;52.402;16.678;2022-08-19T20:23:04;35.13;;;23.73;;
19343;SDS011;9808;52.402;16.678;2022-08-19T20:25:31;30.50;;;24.52;;
19343;SDS011;9808;52.402;16.678;2022-08-19T20:27:59;29.35;;;22.90;;
19343;SDS011;9808;52.402;16.678;2022-08-19T20:30:26;29.08;;;22.95;;
19343;SDS011;9808;52.402;16.678;2022-08-19T20:32:58;29.70;;;23.00;;
19343;SDS011;9808;52.402;16.678;2022-08-19T20:35:25;31.63;;;23.42;;
19343;SDS011;9808;52.402;16.678;2022-08-19T20:37:52;30.33;;;22.48;;
19343;SDS011;9808;52.402;16.678;2022-08-19T20:40:24;26.95;;;23.75;;
19343;SDS011;9808;52.402;16.678;2022-08-19T20:42:51;29.00;;;22.58;;
19343;SDS011;9808;52.402;16.678;2022-08-19T20:45:20;29.27;;;22.38;;
19343;SDS011;9808;52.402;16.678;2022-08-19T20:47:59;29.60;;;22.42;;
19343;SDS011;9808;52.402;16.678;2022-08-19T20:50:31;26.80;;;20.75;;
19343;SDS011;9808;52.402;16.678;2022-08-19T20:53:00;27.42;;;21.27;;
19343;SDS011;9808;52.402;16.678;2022-08-19T20:55:34;25.60;;;22.27;;
19343;SDS011;9808;52.402;16.678;2022-08-19T20:58:01;30.08;;;21.88;;
19343;SDS011;9808;52.402;16.678;2022-08-19T21:00:27;27.63;;;22.65;;
19343;SDS011;9808;52.402;16.678;2022-08-19T21:02:55;27.35;;;23.00;;
19343;SDS011;9808;52.402;16.678;2022-08-19T21:05:22;26.77;;;22.83;;
19343;SDS011;9808;52.402;16.678;2022-08-19T21:07:55;29.35;;;23.27;;
19343;SDS011;9808;52.402;16.678;2022-08-19T21:10:23;34.50;;;25.00;;
19343;SDS011;9808;52.402;16.678;2022-08-19T21:12:51;31.35;;;22.50;;
19343;SDS011;9808;52.402;16.678;2022-08-19T21:15:18;26.08;;;22.35;;
19343;SDS011;9808;52.402;16.678;2022-08-19T21:17:45;26.77;;;23.88;;
19343;SDS011;9808;52.402;16.678;2022-08-19T21:20:13;32.45;;;24.88;;
19343;SDS011;9808;52.402;16.678;2022-08-19T21:22:40;32.42;;;24.52;;
19343;SDS011;9808;52.402;16.678;2022-08-19T21:25:07;33.03;;;25.58;;
19343;SDS011;9808;52.402;16.678;2022-08-19T21:27:34;31.67;;;26.05;;
19343;SDS011;9808;52.402;16.678;2022-08-19T21:30:01;31.63;;;24.98;;
19343;SDS011;9808;52.402;16.678;2022-08-19T21:32:29;35.20;;;25.75;;
19343;SDS011;9808;52.402;16.678;2022-08-19T21:34:56;31.65;;;25.77;;
19343;SDS011;9808;52.402;16.678;2022-08-19T21:37:22;27.38;;;23.98;;
19343;SDS011;9808;52.402;16.678;2022-08-19T21:39:51;28.80;;;24.17;;
19343;SDS011;9808;52.402;16.678;2022-08-19T21:42:19;27.85;;;24.25;;
19343;SDS011;9808;52.402;16.678;2022-08-19T21:44:46;28.60;;;23.27;;
19343;SDS011;9808;52.402;16.678;2022-08-19T21:47:12;28.88;;;25.35;;
19343;SDS011;9808;52.402;16.678;2022-08-19T21:49:39;28.90;;;23.50;;
19343;SDS011;9808;52.402;16.678;2022-08-19T21:52:06;30.15;;;23.90;;
19343;SDS011;9808;52.402;16.678;2022-08-19T21:54:33;32.10;;;23.42;;
19343;SDS011;9808;52.402;16.678;2022-08-19T21:57:04;28.08;;;24.73;;
19343;SDS011;9808;52.402;16.678;2022-08-19T21:59:35;30.98;;;25.42;;
19343;SDS011;9808;52.402;16.678;2022-08-19T22:02:09;31.17;;;24.00;;
19343;SDS011;9808;52.402;16.678;2022-08-19T22:04:50;30.08;;;24.95;;
19343;SDS011;9808;52.402;16.678;2022-08-19T22:07:18;34.13;;;25.83;;
19343;SDS011;9808;52.402;16.678;2022-08-19T22:09:47;31.45;;;25.67;;
19343;SDS011;9808;52.402;16.678;2022-08-19T22:12:23;35.50;;;24.70;;
19343;SDS011;9808;52.402;16.678;2022-08-19T22:14:55;32.40;;;26.30;;
19343;SDS011;9808;52.402;16.678;2022-08-19T22:17:23;32.38;;;26.20;;
19343;SDS011;9808;52.402;16.678;2022-08-19T22:19:53;32.30;;;26.13;;
19343;SDS011;9808;52.402;16.678;2022-08-19T22:22:25;30.27;;;25.08;;
19343;SDS011;9808;52.402;16.678;2022-08-19T22:24:57;36.65;;;25.45;;
19343;SDS011;9808;52.402;16.678;2022-08-19T22:27:32;31.88;;;24.92;;
19343;SDS011;9808;52.402;16.678;2022-08-19T22:29:59;37.05;;;26.48;;
19343;SDS011;9808;52.402;16.678;2022-08-19T22:32:29;31.10;;;26.50;;
19343;SDS011;9808;52.402;16.678;2022-08-19T22:34:57;28.48;;;24.92;;
19343;SDS011;9808;52.402;16.678;2022-08-19T22:37:24;32.45;;;26.00;;
19343;SDS011;9808;52.402;16.678;2022-08-19T22:39:52;32.45;;;25.85;;
19343;SDS011;9808;52.402;16.678;2022-08-19T22:42:20;32.33;;;25.17;;
19343;SDS011;9808;52.402;16.678;2022-08-19T22:44:47;29.33;;;24.67;;
19343;SDS011;9808;52.402;16.678;2022-08-19T22:47:14;30.48;;;25.27;;
19343;SDS011;9808;52.402;16.678;2022-08-19T22:49:41;30.60;;;25.60;;
19343;SDS011;9808;52.402;16.678;2022-08-19T22:52:09;31.95;;;26.50;;
19343;SDS011;9808;52.402;16.678;2022-08-19T22:54:46;32.20;;;26.25;;
19343;SDS011;9808;52.402;16.678;2022-08-19T22:57:18;32.15;;;24.42;;
19343;SDS011;9808;52.402;16.678;2022-08-19T22:59:50;28.95;;;25.27;;
19343;SDS011;9808;52.402;16.678;2022-08-19T23:02:20;31.73;;;25.90;;
19343;SDS011;9808;52.402;16.678;2022-08-19T23:04:50;27.75;;;24.35;;
19343;SDS011;9808;52.402;16.678;2022-08-19T23:07:18;30.83;;;24.35;;
19343;SDS011;9808;52.402;16.678;2022-08-19T23:09:49;30.52;;;24.55;;
19343;SDS011;9808;52.402;16.678;2022-08-19T23:12:23;30.52;;;24.27;;
19343;SDS011;9808;52.402;16.678;2022-08-19T23:14:53;33.15;;;24.30;;
19343;SDS011;9808;52.402;16.678;2022-08-19T23:17:19;33.40;;;24.92;;
19343;SDS011;9808;52.402;16.678;2022-08-19T23:19:46;29.17;;;25.30;;
19343;SDS011;9808;52.402;16.678;2022-08-19T23:22:17;31.75;;;25.63;;
19343;SDS011;9808;52.402;16.678;2022-08-19T23:24:50;33.28;;;25.30;;
19343;SDS011;9808;52.402;16.678;2022-08-19T23:27:21;29.08;;;23.20;;
19343;SDS011;9808;52.402;16.678;2022-08-19T23:30:06;28.55;;;23.42;;
19343;SDS011;9808;52.402;16.678;2022-08-19T23:32:56;28.27;;;22.98;;
19343;SDS011;9808;52.402;16.678;2022-08-19T23:35:36;30.95;;;24.02;;
19343;SDS011;9808;52.402;16.678;2022-08-19T23:38:03;34.63;;;26.60;;
19343;SDS011;9808;52.402;16.678;2022-08-19T23:40:32;26.17;;;22.80;;
19343;SDS011;9808;52.402;16.678;2022-08-19T23:43:00;25.75;;;22.63;;
19343;SDS011;9808;52.402;16.678;2022-08-19T23:45:35;28.27;;;24.30;;
19343;SDS011;9808;52.402;16.678;2022-08-19T23:48:04;27.05;;;22.83;;
19343;SDS011;9808;52.402;16.678;2022-08-19T23:50:32;29.35;;;24.52;;
19343;SDS011;9808;52.402;16.678;2022-08-19T23:52:59;28.15;;;23.58;;
19343;SDS011;9808;52.402;16.678;2022-08-19T23:55:29;25.90;;;22.38;;
19343;SDS011;9808;52.402;16.678;2022-08-19T23:57:58;28.98;;;23.52;;
